LGNX

Naxos Island National Airport

Airport
ICAO code
LGNX
IATA Code
JNX
Summary
ICAO Region
EUR
ICAO Territory
Location

Agios Prokopios, Cyclades

Serving
Naxos
Elevation
10 ft
Coordinates
37° 4' 53" N , 25° 22' 7" E
KCC
Metar
LGNX 041050Z 22011KT 9999 FEW020 18/12 Q1015

Naxos Island National Airport is an airport in Naxos, Greece.

Climatology

Warm mediterranean climate (Köppen climate classification Csa)

Runways

Designator Length Width Surface Rops
18/36 900 0 UNK No/No

Airport map

Aerial View

SKYbrary Partners:

Safety knowledge contributed by: